sensor_id;sensor_type;location;lat;lon;timestamp;pressure;altitude;pressure_sealevel;temperature;humidity
13767;BME280;47980;48.794;9.176;2023-06-22T00:02:07;98247.16;;;23.05;83.42
13767;BME280;47980;48.794;9.176;2023-06-22T00:04:38;98255.09;;;23.19;81.08
13767;BME280;47980;48.794;9.176;2023-06-22T00:07:11;98258.47;;;22.96;83.46
13767;BME280;47980;48.794;9.176;2023-06-22T00:09:43;98249.47;;;23.06;83.39
13767;BME280;47980;48.794;9.176;2023-06-22T00:12:14;98252.22;;;23.03;82.96
13767;BME280;47980;48.794;9.176;2023-06-22T00:14:45;98247.25;;;22.94;84.97
13767;BME280;47980;48.794;9.176;2023-06-22T00:17:17;98255.53;;;22.76;85.43
13767;BME280;47980;48.794;9.176;2023-06-22T00:19:48;98251.22;;;22.82;85.64
13767;BME280;47980;48.794;9.176;2023-06-22T00:22:24;98250.38;;;22.93;84.59
13767;BME280;47980;48.794;9.176;2023-06-22T00:24:59;98269.81;;;22.80;85.42
13767;BME280;47980;48.794;9.176;2023-06-22T00:27:30;98266.13;;;22.60;87.18
13767;BME280;47980;48.794;9.176;2023-06-22T00:30:03;98261.13;;;22.58;87.28
13767;BME280;47980;48.794;9.176;2023-06-22T00:32:34;98257.16;;;22.70;86.82
13767;BME280;47980;48.794;9.176;2023-06-22T00:35:07;98256.94;;;22.50;87.95
13767;BME280;47980;48.794;9.176;2023-06-22T00:37:40;98246.59;;;22.42;89.24
13767;BME280;47980;48.794;9.176;2023-06-22T00:40:12;98245.81;;;22.45;89.34
13767;BME280;47980;48.794;9.176;2023-06-22T00:42:44;98241.78;;;22.60;87.21
13767;BME280;47980;48.794;9.176;2023-06-22T00:45:16;98250.84;;;22.43;88.77
13767;BME280;47980;48.794;9.176;2023-06-22T00:47:47;98240.47;;;22.38;89.53
13767;BME280;47980;48.794;9.176;2023-06-22T00:50:32;98246.28;;;22.32;90.29
13767;BME280;47980;48.794;9.176;2023-06-22T00:53:07;98258.34;;;22.21;92.69
13767;BME280;47980;48.794;9.176;2023-06-22T00:55:42;98259.97;;;22.04;93.63
13767;BME280;47980;48.794;9.176;2023-06-22T00:58:15;98270.47;;;21.95;93.56
13767;BME280;47980;48.794;9.176;2023-06-22T01:00:47;98280.91;;;21.93;93.49
13767;BME280;47980;48.794;9.176;2023-06-22T01:03:19;98278.94;;;21.97;93.41
13767;BME280;47980;48.794;9.176;2023-06-22T01:05:51;98271.97;;;22.03;93.12
13767;BME280;47980;48.794;9.176;2023-06-22T01:08:31;98293.31;;;21.86;94.96
13767;BME280;47980;48.794;9.176;2023-06-22T01:11:10;98327.25;;;21.91;94.07
13767;BME280;47980;48.794;9.176;2023-06-22T01:13:50;98304.91;;;21.83;93.97
13767;BME280;47980;48.794;9.176;2023-06-22T01:16:25;98274.66;;;22.06;91.96
13767;BME280;47980;48.794;9.176;2023-06-22T01:19:01;98282.84;;;21.92;93.96
13767;BME280;47980;48.794;9.176;2023-06-22T01:21:40;98292.94;;;21.81;94.35
13767;BME280;47980;48.794;9.176;2023-06-22T01:24:18;98288.25;;;21.92;93.90
13767;BME280;47980;48.794;9.176;2023-06-22T01:26:57;98272.00;;;21.96;93.59
13767;BME280;47980;48.794;9.176;2023-06-22T01:29:33;98260.44;;;21.95;93.74
13767;BME280;47980;48.794;9.176;2023-06-22T01:32:06;98269.75;;;21.91;93.83
13767;BME280;47980;48.794;9.176;2023-06-22T01:34:39;98277.13;;;21.83;95.90
13767;BME280;47980;48.794;9.176;2023-06-22T01:37:11;98270.19;;;21.75;95.64
13767;BME280;47980;48.794;9.176;2023-06-22T01:39:44;98268.88;;;22.04;92.88
13767;BME280;47980;48.794;9.176;2023-06-22T01:42:16;98259.19;;;22.07;92.20
13767;BME280;47980;48.794;9.176;2023-06-22T01:44:50;98273.81;;;22.13;92.30
13767;BME280;47980;48.794;9.176;2023-06-22T01:47:22;98268.47;;;22.06;91.95
13767;BME280;47980;48.794;9.176;2023-06-22T01:49:54;98264.66;;;22.00;92.57
13767;BME280;47980;48.794;9.176;2023-06-22T01:52:26;98265.88;;;21.88;93.69
13767;BME280;47980;48.794;9.176;2023-06-22T01:54:57;98280.31;;;21.60;95.81
13767;BME280;47980;48.794;9.176;2023-06-22T01:57:30;98290.75;;;21.61;96.75
13767;BME280;47980;48.794;9.176;2023-06-22T02:00:04;98277.66;;;21.49;97.76
13767;BME280;47980;48.794;9.176;2023-06-22T02:02:40;98286.16;;;21.51;96.77
13767;BME280;47980;48.794;9.176;2023-06-22T02:05:16;98287.28;;;21.61;96.94
13767;BME280;47980;48.794;9.176;2023-06-22T02:07:57;98281.91;;;21.54;96.61
13767;BME280;47980;48.794;9.176;2023-06-22T02:10:31;98287.31;;;21.54;95.93
13767;BME280;47980;48.794;9.176;2023-06-22T02:13:06;98288.81;;;21.58;95.99
13767;BME280;47980;48.794;9.176;2023-06-22T02:15:40;98293.50;;;21.51;96.97
13767;BME280;47980;48.794;9.176;2023-06-22T02:18:12;98285.31;;;21.69;94.94
13767;BME280;47980;48.794;9.176;2023-06-22T02:20:44;98287.59;;;21.70;94.82
13767;BME280;47980;48.794;9.176;2023-06-22T02:23:15;98293.78;;;21.63;95.76
13767;BME280;47980;48.794;9.176;2023-06-22T02:25:47;98284.63;;;21.47;97.58
13767;BME280;47980;48.794;9.176;2023-06-22T02:28:19;98288.44;;;21.53;95.88
13767;BME280;47980;48.794;9.176;2023-06-22T02:30:52;98285.69;;;21.63;94.86
13767;BME280;47980;48.794;9.176;2023-06-22T02:33:23;98282.66;;;21.54;95.68
13767;BME280;47980;48.794;9.176;2023-06-22T02:35:54;98272.28;;;21.46;96.68
13767;BME280;47980;48.794;9.176;2023-06-22T02:38:26;98271.53;;;21.42;97.08
13767;BME280;47980;48.794;9.176;2023-06-22T02:40:57;98266.16;;;21.27;98.30
13767;BME280;47980;48.794;9.176;2023-06-22T02:43:29;98263.88;;;21.22;98.75
13767;BME280;47980;48.794;9.176;2023-06-22T02:46:02;98258.50;;;21.15;100.00
13767;BME280;47980;48.794;9.176;2023-06-22T02:48:33;98253.53;;;21.03;100.00
13767;BME280;47980;48.794;9.176;2023-06-22T02:51:05;98254.69;;;20.98;100.00
13767;BME280;47980;48.794;9.176;2023-06-22T02:53:37;98258.53;;;21.01;100.00
13767;BME280;47980;48.794;9.176;2023-06-22T02:56:08;98253.56;;;20.99;100.00
13767;BME280;47980;48.794;9.176;2023-06-22T02:58:40;98244.31;;;20.93;100.00
13767;BME280;47980;48.794;9.176;2023-06-22T03:01:13;98244.75;;;20.77;100.00
13767;BME280;47980;48.794;9.176;2023-06-22T03:03:44;98252.03;;;20.77;100.00
13767;BME280;47980;48.794;9.176;2023-06-22T03:06:16;98251.22;;;21.01;100.00
13767;BME280;47980;48.794;9.176;2023-06-22T03:08:58;98249.72;;;20.93;100.00
13767;BME280;47980;48.794;9.176;2023-06-22T03:11:30;98248.94;;;20.89;100.00
13767;BME280;47980;48.794;9.176;2023-06-22T03:14:02;98243.16;;;20.87;100.00
13767;BME280;47980;48.794;9.176;2023-06-22T03:16:35;98244.34;;;20.86;100.00
13767;BME280;47980;48.794;9.176;2023-06-22T03:19:07;98241.63;;;20.86;100.00
13767;BME280;47980;48.794;9.176;2023-06-22T03:21:38;98239.69;;;20.90;100.00
13767;BME280;47980;48.794;9.176;2023-06-22T03:24:10;98238.16;;;20.92;100.00
13767;BME280;47980;48.794;9.176;2023-06-22T03:26:41;98237.78;;;20.83;100.00
13767;BME280;47980;48.794;9.176;2023-06-22T03:29:16;98241.25;;;20.77;100.00
13767;BME280;47980;48.794;9.176;2023-06-22T03:31:49;98235.47;;;20.85;100.00
13767;BME280;47980;48.794;9.176;2023-06-22T03:34:21;98238.53;;;20.87;100.00
13767;BME280;47980;48.794;9.176;2023-06-22T03:36:52;98237.72;;;21.05;100.00
13767;BME280;47980;48.794;9.176;2023-06-22T03:39:24;98241.16;;;21.12;99.55
13767;BME280;47980;48.794;9.176;2023-06-22T03:41:55;98241.13;;;21.23;97.42
13767;BME280;47980;48.794;9.176;2023-06-22T03:44:26;98243.44;;;21.25;97.91
13767;BME280;47980;48.794;9.176;2023-06-22T03:46:59;98242.63;;;21.38;96.54
13767;BME280;47980;48.794;9.176;2023-06-22T03:49:32;98241.88;;;21.34;96.50
13767;BME280;47980;48.794;9.176;2023-06-22T03:52:04;98231.75;;;21.53;95.17
13767;BME280;47980;48.794;9.176;2023-06-22T03:54:36;98221.75;;;21.53;94.51
13767;BME280;47980;48.794;9.176;2023-06-22T03:57:08;98220.47;;;21.72;94.01
13767;BME280;47980;48.794;9.176;2023-06-22T03:59:40;98224.34;;;21.64;93.63
13767;BME280;47980;48.794;9.176;2023-06-22T04:02:13;98231.56;;;21.85;92.54
13767;BME280;47980;48.794;9.176;2023-06-22T04:04:44;98231.44;;;22.03;91.12
13767;BME280;47980;48.794;9.176;2023-06-22T04:07:16;98231.97;;;22.35;88.08
13767;BME280;47980;48.794;9.176;2023-06-22T04:09:48;98234.94;;;22.52;87.56
13767;BME280;47980;48.794;9.176;2023-06-22T04:12:19;98227.38;;;22.29;87.63
13767;BME280;47980;48.794;9.176;2023-06-22T04:14:51;98218.00;;;22.44;87.83
13767;BME280;47980;48.794;9.176;2023-06-22T04:17:24;98224.50;;;22.88;85.16
13767;BME280;47980;48.794;9.176;2023-06-22T04:19:56;98222.66;;;23.16;83.78
13767;BME280;47980;48.794;9.176;2023-06-22T04:22:27;98217.28;;;23.12;82.29
13767;BME280;47980;48.794;9.176;2023-06-22T04:24:59;98214.88;;;23.48;81.33
13767;BME280;47980;48.794;9.176;2023-06-22T04:27:30;98211.66;;;23.61;79.61
13767;BME280;47980;48.794;9.176;2023-06-22T04:30:02;98215.00;;;23.72;77.56
13767;BME280;47980;48.794;9.176;2023-06-22T04:32:35;98207.84;;;23.54;79.66
13767;BME280;47980;48.794;9.176;2023-06-22T04:35:07;98207.09;;;23.54;78.95
13767;BME280;47980;48.794;9.176;2023-06-22T04:37:39;98204.50;;;23.74;78.63
13767;BME280;47980;48.794;9.176;2023-06-22T04:40:11;98214.56;;;23.73;78.80
13767;BME280;47980;48.794;9.176;2023-06-22T04:42:44;98207.50;;;23.22;81.52
13767;BME280;47980;48.794;9.176;2023-06-22T04:45:22;98202.72;;;23.60;79.79
13767;BME280;47980;48.794;9.176;2023-06-22T04:47:55;98199.47;;;23.15;81.34
13767;BME280;47980;48.794;9.176;2023-06-22T04:50:26;98196.22;;;22.96;82.55
13767;BME280;47980;48.794;9.176;2023-06-22T04:52:58;98199.88;;;23.44;81.25
13767;BME280;47980;48.794;9.176;2023-06-22T04:55:29;98194.97;;;23.35;81.54
13767;BME280;47980;48.794;9.176;2023-06-22T04:58:01;98188.13;;;23.54;80.19
13767;BME280;47980;48.794;9.176;2023-06-22T05:00:34;98188.22;;;23.16;82.47
13767;BME280;47980;48.794;9.176;2023-06-22T05:03:08;98188.63;;;22.84;83.29
13767;BME280;47980;48.794;9.176;2023-06-22T05:05:41;98186.00;;;23.11;82.45
13767;BME280;47980;48.794;9.176;2023-06-22T05:08:13;98186.91;;;23.32;81.03
13767;BME280;47980;48.794;9.176;2023-06-22T05:10:45;98188.84;;;23.27;80.39
13767;BME280;47980;48.794;9.176;2023-06-22T05:13:16;98195.13;;;23.24;81.51
13767;BME280;47980;48.794;9.176;2023-06-22T05:15:48;98193.75;;;23.09;81.90
13767;BME280;47980;48.794;9.176;2023-06-22T05:18:20;98181.19;;;23.53;79.53
13767;BME280;47980;48.794;9.176;2023-06-22T05:20:53;98177.88;;;23.69;79.81
13767;BME280;47980;48.794;9.176;2023-06-22T05:23:25;98182.28;;;23.55;79.49
13767;BME280;47980;48.794;9.176;2023-06-22T05:25:56;98177.88;;;23.69;78.66
13767;BME280;47980;48.794;9.176;2023-06-22T05:28:28;98179.31;;;24.00;76.94
13767;BME280;47980;48.794;9.176;2023-06-22T05:30:59;98175.22;;;23.89;77.23
13767;BME280;47980;48.794;9.176;2023-06-22T05:33:32;98174.47;;;23.88;77.79
13767;BME280;47980;48.794;9.176;2023-06-22T05:36:04;98174.13;;;23.86;77.90
13767;BME280;47980;48.794;9.176;2023-06-22T05:38:36;98173.22;;;23.42;79.21
13767;BME280;47980;48.794;9.176;2023-06-22T05:41:08;98178.59;;;23.96;77.44
13767;BME280;47980;48.794;9.176;2023-06-22T05:43:40;98174.38;;;24.19;77.11
13767;BME280;47980;48.794;9.176;2023-06-22T05:46:11;98177.31;;;24.05;76.81
13767;BME280;47980;48.794;9.176;2023-06-22T05:48:44;98176.78;;;24.13;76.07
13767;BME280;47980;48.794;9.176;2023-06-22T05:51:16;98166.13;;;24.26;76.11
13767;BME280;47980;48.794;9.176;2023-06-22T05:53:47;98173.25;;;24.16;77.11
13767;BME280;47980;48.794;9.176;2023-06-22T05:56:20;98172.47;;;23.92;76.57
13767;BME280;47980;48.794;9.176;2023-06-22T05:58:51;98168.75;;;24.06;76.64
13767;BME280;47980;48.794;9.176;2023-06-22T06:01:23;98176.25;;;23.98;76.73
13767;BME280;47980;48.794;9.176;2023-06-22T06:03:57;98166.56;;;23.74;79.59
13767;BME280;47980;48.794;9.176;2023-06-22T06:06:28;98168.59;;;23.66;78.36
13767;BME280;47980;48.794;9.176;2023-06-22T06:09:00;98169.81;;;23.35;79.29
13767;BME280;47980;48.794;9.176;2023-06-22T06:11:32;98168.19;;;23.41;78.25
13767;BME280;47980;48.794;9.176;2023-06-22T06:14:03;98151.44;;;23.49;78.70
13767;BME280;47980;48.794;9.176;2023-06-22T06:16:35;98153.25;;;23.56;78.41
13767;BME280;47980;48.794;9.176;2023-06-22T06:19:07;98154.69;;;23.64;76.96
13767;BME280;47980;48.794;9.176;2023-06-22T06:21:39;98156.16;;;23.96;75.39
13767;BME280;47980;48.794;9.176;2023-06-22T06:24:11;98153.50;;;24.39;72.88
13767;BME280;47980;48.794;9.176;2023-06-22T06:26:43;98151.34;;;24.70;72.37
13767;BME280;47980;48.794;9.176;2023-06-22T06:29:15;98151.75;;;24.89;70.91
13767;BME280;47980;48.794;9.176;2023-06-22T06:31:47;98152.13;;;25.27;69.93
13767;BME280;47980;48.794;9.176;2023-06-22T06:34:20;98159.88;;;25.45;68.47
13767;BME280;47980;48.794;9.176;2023-06-22T06:36:51;98153.81;;;25.57;67.06
13767;BME280;47980;48.794;9.176;2023-06-22T06:39:23;98155.69;;;26.09;65.99
13767;BME280;47980;48.794;9.176;2023-06-22T06:41:55;98154.66;;;26.20;66.54
13767;BME280;47980;48.794;9.176;2023-06-22T06:44:27;98154.81;;;25.63;68.31
13767;BME280;47980;48.794;9.176;2023-06-22T06:46:58;98157.00;;;25.36;67.34
13767;BME280;47980;48.794;9.176;2023-06-22T06:49:32;98159.00;;;25.68;66.73
13767;BME280;47980;48.794;9.176;2023-06-22T06:52:05;98158.59;;;25.86;66.42
13767;BME280;47980;48.794;9.176;2023-06-22T06:54:37;98158.91;;;25.88;67.19
13767;BME280;47980;48.794;9.176;2023-06-22T06:57:08;98167.97;;;26.14;64.17
13767;BME280;47980;48.794;9.176;2023-06-22T06:59:41;98150.50;;;26.15;64.66
13767;BME280;47980;48.794;9.176;2023-06-22T07:02:12;98149.56;;;26.05;66.32
13767;BME280;47980;48.794;9.176;2023-06-22T07:04:46;98149.88;;;26.24;64.96
13767;BME280;47980;48.794;9.176;2023-06-22T07:07:18;98154.34;;;26.47;63.97
13767;BME280;47980;48.794;9.176;2023-06-22T07:09:49;98153.16;;;26.48;63.69
13767;BME280;47980;48.794;9.176;2023-06-22T07:12:21;98140.72;;;26.47;63.58
13767;BME280;47980;48.794;9.176;2023-06-22T07:14:52;98139.78;;;26.08;64.74
13767;BME280;47980;48.794;9.176;2023-06-22T07:17:24;98134.50;;;26.17;63.64
13767;BME280;47980;48.794;9.176;2023-06-22T07:19:57;98120.81;;;26.21;64.41
13767;BME280;47980;48.794;9.176;2023-06-22T07:22:28;98123.22;;;26.48;64.64
13767;BME280;47980;48.794;9.176;2023-06-22T07:25:00;98118.50;;;26.90;62.27
13767;BME280;47980;48.794;9.176;2023-06-22T07:27:36;98118.13;;;27.30;61.08
13767;BME280;47980;48.794;9.176;2023-06-22T07:30:09;98110.38;;;27.41;59.90
13767;BME280;47980;48.794;9.176;2023-06-22T07:32:41;98112.69;;;27.43;59.76
13767;BME280;47980;48.794;9.176;2023-06-22T07:35:14;98108.44;;;27.42;59.82
13767;BME280;47980;48.794;9.176;2023-06-22T07:37:46;98097.63;;;27.51;59.75
13767;BME280;47980;48.794;9.176;2023-06-22T07:40:18;98091.38;;;27.63;58.99
13767;BME280;47980;48.794;9.176;2023-06-22T07:42:49;98090.97;;;27.99;59.00
13767;BME280;47980;48.794;9.176;2023-06-22T07:45:21;98090.13;;;27.42;59.81
13767;BME280;47980;48.794;9.176;2023-06-22T07:47:53;98088.31;;;27.87;60.15
13767;BME280;47980;48.794;9.176;2023-06-22T07:50:26;98079.88;;;27.94;58.70
13767;BME280;47980;48.794;9.176;2023-06-22T07:52:57;98066.50;;;28.43;57.23
13767;BME280;47980;48.794;9.176;2023-06-22T07:55:29;98062.78;;;28.59;56.01
13767;BME280;47980;48.794;9.176;2023-06-22T07:58:00;98061.13;;;28.62;56.51
13767;BME280;47980;48.794;9.176;2023-06-22T08:00:33;98060.25;;;28.43;55.45
13767;BME280;47980;48.794;9.176;2023-06-22T08:03:04;98077.91;;;27.94;57.46
13767;BME280;47980;48.794;9.176;2023-06-22T08:05:37;98075.44;;;27.87;57.43
13767;BME280;47980;48.794;9.176;2023-06-22T08:08:09;98082.22;;;27.82;57.95
13767;BME280;47980;48.794;9.176;2023-06-22T08:10:40;98089.34;;;27.54;58.22
13767;BME280;47980;48.794;9.176;2023-06-22T08:13:12;98101.22;;;28.08;58.69
13767;BME280;47980;48.794;9.176;2023-06-22T08:15:45;98099.38;;;28.62;55.89
13767;BME280;47980;48.794;9.176;2023-06-22T08:18:16;98106.47;;;28.90;55.32
13767;BME280;47980;48.794;9.176;2023-06-22T08:20:49;98098.34;;;28.46;56.54
13767;BME280;47980;48.794;9.176;2023-06-22T08:23:21;98095.31;;;28.75;55.82
13767;BME280;47980;48.794;9.176;2023-06-22T08:25:52;98106.53;;;28.46;55.70
13767;BME280;47980;48.794;9.176;2023-06-22T08:28:24;98117.78;;;28.14;56.22
13767;BME280;47980;48.794;9.176;2023-06-22T08:30:56;98117.41;;;28.59;57.06
13767;BME280;47980;48.794;9.176;2023-06-22T08:33:27;98116.47;;;29.06;55.80
13767;BME280;47980;48.794;9.176;2023-06-22T08:36:02;98123.97;;;29.24;53.46
13767;BME280;47980;48.794;9.176;2023-06-22T08:38:36;98125.69;;;28.77;55.14
13767;BME280;47980;48.794;9.176;2023-06-22T08:41:07;98125.13;;;28.61;55.00
13767;BME280;47980;48.794;9.176;2023-06-22T08:43:40;98121.16;;;29.06;53.76
13767;BME280;47980;48.794;9.176;2023-06-22T08:46:12;98115.38;;;29.44;53.92
13767;BME280;47980;48.794;9.176;2023-06-22T08:48:43;98105.28;;;29.72;53.47
13767;BME280;47980;48.794;9.176;2023-06-22T08:51:16;98104.72;;;30.41;50.49
13767;BME280;47980;48.794;9.176;2023-06-22T08:53:48;98104.97;;;29.70;51.78
13767;BME280;47980;48.794;9.176;2023-06-22T08:56:19;98098.47;;;29.27;52.51
13767;BME280;47980;48.794;9.176;2023-06-22T08:58:51;98099.22;;;29.86;51.94
13767;BME280;47980;48.794;9.176;2023-06-22T09:01:22;98096.50;;;29.86;51.62
13767;BME280;47980;48.794;9.176;2023-06-22T09:03:54;98100.25;;;30.81;50.72
13767;BME280;47980;48.794;9.176;2023-06-22T09:06:31;98104.25;;;30.52;50.01
13767;BME280;47980;48.794;9.176;2023-06-22T09:09:02;98102.78;;;29.56;52.24
13767;BME280;47980;48.794;9.176;2023-06-22T09:11:34;98096.50;;;29.86;50.99
13767;BME280;47980;48.794;9.176;2023-06-22T09:14:06;98080.72;;;30.18;51.28
13767;BME280;47980;48.794;9.176;2023-06-22T09:16:38;98085.53;;;30.14;52.02
13767;BME280;47980;48.794;9.176;2023-06-22T09:19:09;98105.03;;;29.39;52.55
13767;BME280;47980;48.794;9.176;2023-06-22T09:21:42;98130.56;;;30.13;51.68
13767;BME280;47980;48.794;9.176;2023-06-22T09:24:14;98128.41;;;30.72;49.69
13767;BME280;47980;48.794;9.176;2023-06-22T09:26:46;98101.13;;;31.29;47.98
13767;BME280;47980;48.794;9.176;2023-06-22T09:29:17;98097.69;;;32.01;47.35
13767;BME280;47980;48.794;9.176;2023-06-22T09:31:49;98085.09;;;32.09;46.32
13767;BME280;47980;48.794;9.176;2023-06-22T09:34:20;98078.16;;;31.99;46.49
13767;BME280;47980;48.794;9.176;2023-06-22T09:36:53;98076.53;;;31.44;47.70
13767;BME280;47980;48.794;9.176;2023-06-22T09:39:25;98068.13;;;31.72;46.93
13767;BME280;47980;48.794;9.176;2023-06-22T09:41:58;98070.44;;;31.49;47.45
13767;BME280;47980;48.794;9.176;2023-06-22T09:44:29;98064.13;;;31.34;48.30
13767;BME280;47980;48.794;9.176;2023-06-22T09:47:01;98068.00;;;32.29;46.74
13767;BME280;47980;48.794;9.176;2023-06-22T09:49:32;98067.28;;;32.58;45.85
13767;BME280;47980;48.794;9.176;2023-06-22T09:52:06;98069.09;;;32.07;46.24
13767;BME280;47980;48.794;9.176;2023-06-22T09:54:38;98049.91;;;32.22;46.07
13767;BME280;47980;48.794;9.176;2023-06-22T09:57:09;98037.84;;;31.66;46.50
13767;BME280;47980;48.794;9.176;2023-06-22T09:59:41;98035.09;;;31.90;46.79
13767;BME280;47980;48.794;9.176;2023-06-22T10:02:12;98040.94;;;31.35;47.99
13767;BME280;47980;48.794;9.176;2023-06-22T10:04:44;98023.00;;;31.34;48.23
13767;BME280;47980;48.794;9.176;2023-06-22T10:07:17;98019.88;;;32.33;46.61
13767;BME280;47980;48.794;9.176;2023-06-22T10:09:48;98024.44;;;32.36;46.58
13767;BME280;47980;48.794;9.176;2023-06-22T10:12:21;98028.50;;;32.11;46.69
13767;BME280;47980;48.794;9.176;2023-06-22T10:14:52;98025.47;;;31.71;48.56
13767;BME280;47980;48.794;9.176;2023-06-22T10:17:24;98018.88;;;30.96;48.86
13767;BME280;47980;48.794;9.176;2023-06-22T10:19:55;98004.28;;;31.47;48.41
13767;BME280;47980;48.794;9.176;2023-06-22T10:22:28;98007.59;;;31.51;47.46
13767;BME280;47980;48.794;9.176;2023-06-22T10:25:00;98006.91;;;32.34;47.29
13767;BME280;47980;48.794;9.176;2023-06-22T10:27:31;98005.19;;;32.66;45.92
13767;BME280;47980;48.794;9.176;2023-06-22T10:30:04;97999.91;;;32.48;46.10
13767;BME280;47980;48.794;9.176;2023-06-22T10:32:38;98007.56;;;32.14;46.91
13767;BME280;47980;48.794;9.176;2023-06-22T10:35:10;98000.16;;;32.05;46.03
13767;BME280;47980;48.794;9.176;2023-06-22T10:37:45;98012.97;;;32.23;45.88
13767;BME280;47980;48.794;9.176;2023-06-22T10:40:17;97990.44;;;32.49;45.80
13767;BME280;47980;48.794;9.176;2023-06-22T10:42:49;97981.25;;;33.02;45.69
13767;BME280;47980;48.794;9.176;2023-06-22T10:45:20;97983.25;;;33.42;45.40
13767;BME280;47980;48.794;9.176;2023-06-22T10:47:52;97970.50;;;33.04;46.24
13767;BME280;47980;48.794;9.176;2023-06-22T10:50:24;97971.50;;;32.36;45.96
13767;BME280;47980;48.794;9.176;2023-06-22T10:52:57;97976.19;;;32.65;45.52
13767;BME280;47980;48.794;9.176;2023-06-22T10:55:29;97987.75;;;32.69;44.93
13767;BME280;47980;48.794;9.176;2023-06-22T10:58:01;97978.31;;;32.55;44.92
13767;BME280;47980;48.794;9.176;2023-06-22T11:00:32;97978.19;;;32.50;43.83
13767;BME280;47980;48.794;9.176;2023-06-22T11:03:04;97971.88;;;32.29;46.09
13767;BME280;47980;48.794;9.176;2023-06-22T11:05:35;97977.75;;;32.51;44.74
13767;BME280;47980;48.794;9.176;2023-06-22T11:08:08;97973.47;;;32.21;45.18
13767;BME280;47980;48.794;9.176;2023-06-22T11:10:40;97969.50;;;32.36;45.70
13767;BME280;47980;48.794;9.176;2023-06-22T11:13:19;97967.22;;;32.50;45.74
13767;BME280;47980;48.794;9.176;2023-06-22T11:15:56;97974.25;;;32.51;45.46
13767;BME280;47980;48.794;9.176;2023-06-22T11:18:28;97970.16;;;32.96;44.25
13767;BME280;47980;48.794;9.176;2023-06-22T11:21:10;97982.13;;;32.78;45.83
13767;BME280;47980;48.794;9.176;2023-06-22T11:23:58;97982.25;;;33.04;45.55
13767;BME280;47980;48.794;9.176;2023-06-22T11:26:29;97974.91;;;32.81;45.82
13767;BME280;47980;48.794;9.176;2023-06-22T11:29:02;97970.06;;;32.11;46.45
13767;BME280;47980;48.794;9.176;2023-06-22T11:31:35;97971.31;;;31.56;46.67
13767;BME280;47980;48.794;9.176;2023-06-22T11:34:08;97964.09;;;31.98;46.21
13767;BME280;47980;48.794;9.176;2023-06-22T11:36:39;97975.00;;;32.07;46.60
13767;BME280;47980;48.794;9.176;2023-06-22T11:39:12;97980.38;;;31.86;46.13
13767;BME280;47980;48.794;9.176;2023-06-22T11:41:45;97971.13;;;32.78;45.78
13767;BME280;47980;48.794;9.176;2023-06-22T11:44:17;97963.38;;;32.77;44.97
13767;BME280;47980;48.794;9.176;2023-06-22T11:46:48;97960.03;;;32.23;45.69
13767;BME280;47980;48.794;9.176;2023-06-22T11:49:20;97951.97;;;32.34;45.20
13767;BME280;47980;48.794;9.176;2023-06-22T11:51:53;97954.72;;;32.49;45.35
13767;BME280;47980;48.794;9.176;2023-06-22T11:54:26;97957.69;;;32.80;44.79
13767;BME280;47980;48.794;9.176;2023-06-22T11:56:58;97951.56;;;32.91;43.91
13767;BME280;47980;48.794;9.176;2023-06-22T11:59:29;97962.50;;;32.50;44.91
13767;BME280;47980;48.794;9.176;2023-06-22T12:02:01;97966.44;;;32.34;45.04
13767;BME280;47980;48.794;9.176;2023-06-22T12:04:33;97968.06;;;32.56;45.67
13767;BME280;47980;48.794;9.176;2023-06-22T12:07:05;97972.25;;;32.22;44.40
13767;BME280;47980;48.794;9.176;2023-06-22T12:09:38;97968.28;;;31.54;46.48
13767;BME280;47980;48.794;9.176;2023-06-22T12:12:10;97980.13;;;31.99;47.22
13767;BME280;47980;48.794;9.176;2023-06-22T12:14:41;97977.25;;;31.94;45.79
13767;BME280;47980;48.794;9.176;2023-06-22T12:17:15;97978.88;;;32.00;45.95
13767;BME280;47980;48.794;9.176;2023-06-22T12:19:48;97967.41;;;32.02;46.35
13767;BME280;47980;48.794;9.176;2023-06-22T12:22:20;97955.69;;;32.01;47.02
13767;BME280;47980;48.794;9.176;2023-06-22T12:24:57;97958.97;;;32.65;46.01
13767;BME280;47980;48.794;9.176;2023-06-22T12:27:30;97951.19;;;32.98;46.15
13767;BME280;47980;48.794;9.176;2023-06-22T12:30:05;97951.41;;;32.95;46.49
13767;BME280;47980;48.794;9.176;2023-06-22T12:32:38;97960.88;;;32.29;46.58
13767;BME280;47980;48.794;9.176;2023-06-22T12:35:10;97973.28;;;32.09;46.61
13767;BME280;47980;48.794;9.176;2023-06-22T12:37:44;97976.88;;;32.30;47.38
13767;BME280;47980;48.794;9.176;2023-06-22T12:40:27;97987.75;;;32.10;48.36
13767;BME280;47980;48.794;9.176;2023-06-22T12:43:17;97971.56;;;32.27;47.64
13767;BME280;47980;48.794;9.176;2023-06-22T12:49:04;97990.50;;;32.10;50.06
13767;BME280;47980;48.794;9.176;2023-06-22T12:52:08;98003.47;;;32.24;50.37
13767;BME280;47980;48.794;9.176;2023-06-22T12:57:35;98016.97;;;31.83;50.26
13767;BME280;47980;48.794;9.176;2023-06-22T13:00:08;98010.94;;;31.55;50.24
13767;BME280;47980;48.794;9.176;2023-06-22T13:02:40;98007.13;;;31.38;50.17
13767;BME280;47980;48.794;9.176;2023-06-22T13:05:12;98005.09;;;31.14;49.82
13767;BME280;47980;48.794;9.176;2023-06-22T13:07:44;97993.59;;;31.25;51.16
13767;BME280;47980;48.794;9.176;2023-06-22T13:10:16;97988.94;;;31.16;50.94
13767;BME280;47980;48.794;9.176;2023-06-22T13:12:49;97981.94;;;30.91;50.32
13767;BME280;47980;48.794;9.176;2023-06-22T13:15:20;97980.19;;;31.03;49.83
13767;BME280;47980;48.794;9.176;2023-06-22T13:17:53;97979.38;;;31.36;52.17
13767;BME280;47980;48.794;9.176;2023-06-22T13:20:25;97973.06;;;31.45;50.27
13767;BME280;47980;48.794;9.176;2023-06-22T13:22:56;97972.13;;;31.48;50.38
13767;BME280;47980;48.794;9.176;2023-06-22T13:25:28;97962.03;;;31.54;50.46
13767;BME280;47980;48.794;9.176;2023-06-22T13:28:01;97959.56;;;31.95;49.77
13767;BME280;47980;48.794;9.176;2023-06-22T13:30:33;97949.44;;;32.80;48.81
13767;BME280;47980;48.794;9.176;2023-06-22T13:33:04;97949.28;;;32.69;48.37
13767;BME280;47980;48.794;9.176;2023-06-22T13:35:36;97942.63;;;32.76;48.46